sensor_id;sensor_type;location;lat;lon;timestamp;pressure;altitude;pressure_sealevel;temperature;humidity
73600;BME280;61877;48.246;9.220;2024-01-30T02:59:48;95437.44;;;-3.41;100.00
73600;BME280;61877;48.246;9.220;2024-01-30T03:02:16;95437.44;;;-3.41;100.00
73600;BME280;61877;48.246;9.220;2024-01-30T03:04:49;95439.84;;;-3.40;100.00
73600;BME280;61877;48.246;9.220;2024-01-30T03:07:18;95438.84;;;-3.39;100.00
73600;BME280;61877;48.246;9.220;2024-01-30T03:09:48;95439.06;;;-3.40;100.00
73600;BME280;61877;48.246;9.220;2024-01-30T03:12:14;95435.84;;;-3.42;100.00
73600;BME280;61877;48.246;9.220;2024-01-30T03:14:41;95441.91;;;-3.42;100.00
73600;BME280;61877;48.246;9.220;2024-01-30T03:17:10;95433.44;;;-3.44;100.00
73600;BME280;61877;48.246;9.220;2024-01-30T03:19:36;95436.66;;;-3.42;100.00
73600;BME280;61877;48.246;9.220;2024-01-30T03:22:03;95436.44;;;-3.40;100.00
73600;BME280;61877;48.246;9.220;2024-01-30T03:24:30;95426.63;;;-3.27;100.00
73600;BME280;61877;48.246;9.220;2024-01-30T03:26:57;95430.81;;;-3.26;100.00
73600;BME280;61877;48.246;9.220;2024-01-30T03:29:23;95425.94;;;-3.22;100.00
73600;BME280;61877;48.246;9.220;2024-01-30T03:31:50;95430.59;;;-3.24;100.00
73600;BME280;61877;48.246;9.220;2024-01-30T03:34:18;95434.66;;;-3.28;100.00
73600;BME280;61877;48.246;9.220;2024-01-30T03:36:48;95439.34;;;-3.30;100.00
73600;BME280;61877;48.246;9.220;2024-01-30T03:39:15;95442.84;;;-3.36;100.00
73600;BME280;61877;48.246;9.220;2024-01-30T03:41:45;95431.78;;;-3.38;100.00
73600;BME280;61877;48.246;9.220;2024-01-30T03:44:12;95439.84;;;-3.40;100.00
73600;BME280;61877;48.246;9.220;2024-01-30T03:46:38;95437.22;;;-3.40;100.00
73600;BME280;61877;48.246;9.220;2024-01-30T03:49:05;95437.44;;;-3.41;100.00
73600;BME280;61877;48.246;9.220;2024-01-30T03:51:33;95441.09;;;-3.42;100.00
73600;BME280;61877;48.246;9.220;2024-01-30T03:54:00;95437.88;;;-3.44;100.00
73600;BME280;61877;48.246;9.220;2024-01-30T03:56:26;95436.44;;;-3.40;100.00
73600;BME280;61877;48.246;9.220;2024-01-30T03:58:53;95439.59;;;-3.32;100.00
73600;BME280;61877;48.246;9.220;2024-01-30T04:01:21;95430.09;;;-3.33;100.00
73600;BME280;61877;48.246;9.220;2024-01-30T04:03:48;95434.56;;;-3.33;100.00
73600;BME280;61877;48.246;9.220;2024-01-30T04:06:15;95434.03;;;-3.42;100.00
73600;BME280;61877;48.246;9.220;2024-01-30T04:08:43;95435.69;;;-3.47;100.00
73600;BME280;61877;48.246;9.220;2024-01-30T04:11:09;95432.13;;;-3.53;100.00
73600;BME280;61877;48.246;9.220;2024-01-30T04:13:36;95438.41;;;-3.54;100.00
73600;BME280;61877;48.246;9.220;2024-01-30T04:16:03;95437.94;;;-3.51;100.00
73600;BME280;61877;48.246;9.220;2024-01-30T04:18:30;95428.34;;;-3.57;100.00
73600;BME280;61877;48.246;9.220;2024-01-30T04:20:56;95427.75;;;-3.59;100.00
73600;BME280;61877;48.246;9.220;2024-01-30T04:23:23;95435.84;;;-3.60;100.00
73600;BME280;61877;48.246;9.220;2024-01-30T04:25:51;95435.25;;;-3.62;100.00
73600;BME280;61877;48.246;9.220;2024-01-30T04:28:18;95428.41;;;-3.63;100.00
73600;BME280;61877;48.246;9.220;2024-01-30T04:30:44;95431.25;;;-3.65;100.00
73600;BME280;61877;48.246;9.220;2024-01-30T04:33:11;95430.44;;;-3.65;100.00
73600;BME280;61877;48.246;9.220;2024-01-30T04:35:38;95423.31;;;-3.58;100.00
73600;BME280;61877;48.246;9.220;2024-01-30T04:38:04;95426.25;;;-3.48;100.00
73600;BME280;61877;48.246;9.220;2024-01-30T04:40:31;95433.66;;;-3.45;100.00
73600;BME280;61877;48.246;9.220;2024-01-30T04:42:59;95435.47;;;-3.46;100.00
73600;BME280;61877;48.246;9.220;2024-01-30T04:45:25;95440.78;;;-3.52;100.00
73600;BME280;61877;48.246;9.220;2024-01-30T04:47:52;95440.44;;;-3.56;100.00
73600;BME280;61877;48.246;9.220;2024-01-30T04:50:19;95436.44;;;-3.58;100.00
73600;BME280;61877;48.246;9.220;2024-01-30T04:52:45;95441.09;;;-3.60;100.00
73600;BME280;61877;48.246;9.220;2024-01-30T04:55:12;95439.69;;;-3.63;100.00
73600;BME280;61877;48.246;9.220;2024-01-30T04:57:38;95449.38;;;-3.63;100.00
73600;BME280;61877;48.246;9.220;2024-01-30T05:00:08;95441.75;;;-3.65;100.00
73600;BME280;61877;48.246;9.220;2024-01-30T05:02:35;95442.97;;;-3.67;100.00
73600;BME280;61877;48.246;9.220;2024-01-30T05:05:01;95450.22;;;-3.69;100.00
73600;BME280;61877;48.246;9.220;2024-01-30T05:07:28;95455.03;;;-3.66;100.00
73600;BME280;61877;48.246;9.220;2024-01-30T05:09:55;95452.00;;;-3.63;100.00
73600;BME280;61877;48.246;9.220;2024-01-30T05:12:25;95451.56;;;-3.60;100.00
73600;BME280;61877;48.246;9.220;2024-01-30T05:14:51;95444.84;;;-3.56;100.00
73600;BME280;61877;48.246;9.220;2024-01-30T05:17:20;95452.03;;;-3.45;100.00
73600;BME280;61877;48.246;9.220;2024-01-30T05:19:46;95450.78;;;-3.43;100.00
73600;BME280;61877;48.246;9.220;2024-01-30T05:22:13;95452.03;;;-3.45;100.00
73600;BME280;61877;48.246;9.220;2024-01-30T05:24:40;95453.25;;;-3.48;100.00
73600;BME280;61877;48.246;9.220;2024-01-30T05:27:06;95461.34;;;-3.49;100.00
73600;BME280;61877;48.246;9.220;2024-01-30T05:29:33;95459.53;;;-3.49;100.00
73600;BME280;61877;48.246;9.220;2024-01-30T05:31:59;95456.31;;;-3.51;100.00
73600;BME280;61877;48.246;9.220;2024-01-30T05:34:27;95456.53;;;-3.52;100.00
73600;BME280;61877;48.246;9.220;2024-01-30T05:36:54;95461.19;;;-3.54;100.00
73600;BME280;61877;48.246;9.220;2024-01-30T05:39:20;95461.63;;;-3.57;100.00
73600;BME280;61877;48.246;9.220;2024-01-30T05:41:47;95466.66;;;-3.56;100.00
73600;BME280;61877;48.246;9.220;2024-01-30T05:44:13;95465.66;;;-3.55;100.00
73600;BME280;61877;48.246;9.220;2024-01-30T05:46:40;95465.66;;;-3.55;100.00
73600;BME280;61877;48.246;9.220;2024-01-30T05:49:09;95464.25;;;-3.57;100.00
73600;BME280;61877;48.246;9.220;2024-01-30T05:51:37;95473.72;;;-3.56;100.00
73600;BME280;61877;48.246;9.220;2024-01-30T05:54:03;95465.06;;;-3.57;100.00
73600;BME280;61877;48.246;9.220;2024-01-30T05:56:30;95466.22;;;-3.53;100.00
73600;BME280;61877;48.246;9.220;2024-01-30T05:58:57;95464.19;;;-3.51;100.00
73600;BME280;61877;48.246;9.220;2024-01-30T06:01:24;95461.34;;;-3.49;100.00
73600;BME280;61877;48.246;9.220;2024-01-30T06:03:50;95454.06;;;-3.47;100.00
73600;BME280;61877;48.246;9.220;2024-01-30T06:06:17;95464.13;;;-3.44;100.00
73600;BME280;61877;48.246;9.220;2024-01-30T06:08:45;95467.56;;;-3.44;100.00
73600;BME280;61877;48.246;9.220;2024-01-30T06:11:12;95467.75;;;-3.45;100.00
73600;BME280;61877;48.246;9.220;2024-01-30T06:13:38;95468.13;;;-3.42;100.00
73600;BME280;61877;48.246;9.220;2024-01-30T06:16:09;95466.66;;;-3.38;100.00
73600;BME280;61877;48.246;9.220;2024-01-30T06:18:36;95464.41;;;-3.34;100.00
73600;BME280;61877;48.246;9.220;2024-01-30T06:21:04;95457.28;;;-3.27;100.00
73600;BME280;61877;48.246;9.220;2024-01-30T06:23:30;95454.88;;;-3.29;100.00
73600;BME280;61877;48.246;9.220;2024-01-30T06:25:58;95459.31;;;-3.29;100.00
73600;BME280;61877;48.246;9.220;2024-01-30T06:28:30;95461.34;;;-3.31;100.00
73600;BME280;61877;48.246;9.220;2024-01-30T06:30:57;95459.09;;;-3.28;100.00
73600;BME280;61877;48.246;9.220;2024-01-30T06:33:24;95458.72;;;-3.31;100.00
73600;BME280;61877;48.246;9.220;2024-01-30T06:35:51;95460.56;;;-3.32;100.00
73600;BME280;61877;48.246;9.220;2024-01-30T06:38:17;95462.53;;;-3.27;100.00
73600;BME280;61877;48.246;9.220;2024-01-30T06:40:44;95458.66;;;-3.25;100.00
73600;BME280;61877;48.246;9.220;2024-01-30T06:43:12;95457.06;;;-3.26;100.00
73600;BME280;61877;48.246;9.220;2024-01-30T06:45:39;95462.53;;;-3.27;100.00
73600;BME280;61877;48.246;9.220;2024-01-30T06:48:08;95464.50;;;-3.23;100.00
73600;BME280;61877;48.246;9.220;2024-01-30T06:50:34;95471.13;;;-3.20;100.00
73600;BME280;61877;48.246;9.220;2024-01-30T06:53:01;95467.84;;;-3.16;100.00
73600;BME280;61877;48.246;9.220;2024-01-30T06:55:37;95473.47;;;-3.12;100.00
73600;BME280;61877;48.246;9.220;2024-01-30T06:58:04;95475.88;;;-3.11;100.00
73600;BME280;61877;48.246;9.220;2024-01-30T07:00:32;95478.66;;;-3.06;100.00
73600;BME280;61877;48.246;9.220;2024-01-30T07:02:59;95470.53;;;-2.86;100.00
73600;BME280;61877;48.246;9.220;2024-01-30T07:05:26;95467.09;;;-2.87;100.00
73600;BME280;61877;48.246;9.220;2024-01-30T07:07:53;95475.19;;;-2.88;100.00
73600;BME280;61877;48.246;9.220;2024-01-30T07:10:19;95481.13;;;-2.93;100.00
73600;BME280;61877;48.246;9.220;2024-01-30T07:12:46;95472.88;;;-2.96;100.00
73600;BME280;61877;48.246;9.220;2024-01-30T07:15:13;95478.78;;;-3.01;100.00
73600;BME280;61877;48.246;9.220;2024-01-30T07:17:41;95481.41;;;-3.01;100.00
73600;BME280;61877;48.246;9.220;2024-01-30T07:20:08;95484.63;;;-2.99;100.00
73600;BME280;61877;48.246;9.220;2024-01-30T07:22:37;95479.28;;;-2.92;100.00
73600;BME280;61877;48.246;9.220;2024-01-30T07:25:04;95476.00;;;-2.88;100.00
73600;BME280;61877;48.246;9.220;2024-01-30T07:27:31;95482.63;;;-2.85;100.00
73600;BME280;61877;48.246;9.220;2024-01-30T07:29:58;95481.53;;;-2.78;100.00
73600;BME280;61877;48.246;9.220;2024-01-30T07:32:24;95484.22;;;-2.66;100.00
73600;BME280;61877;48.246;9.220;2024-01-30T07:34:52;95488.16;;;-2.57;100.00
73600;BME280;61877;48.246;9.220;2024-01-30T07:37:33;95483.97;;;-2.46;100.00
73600;BME280;61877;48.246;9.220;2024-01-30T07:40:01;95483.88;;;-2.40;100.00
73600;BME280;61877;48.246;9.220;2024-01-30T07:42:28;95481.28;;;-2.28;100.00
73600;BME280;61877;48.246;9.220;2024-01-30T07:44:57;95489.19;;;-2.17;100.00
73600;BME280;61877;48.246;9.220;2024-01-30T07:47:23;95483.84;;;-2.10;100.00
73600;BME280;61877;48.246;9.220;2024-01-30T07:49:50;95483.31;;;-2.01;100.00
73600;BME280;61877;48.246;9.220;2024-01-30T07:52:18;95474.63;;;-1.90;100.00
73600;BME280;61877;48.246;9.220;2024-01-30T07:54:45;95488.16;;;-1.75;100.00
73600;BME280;61877;48.246;9.220;2024-01-30T07:57:11;95482.69;;;-1.62;100.00
73600;BME280;61877;48.246;9.220;2024-01-30T07:59:38;95484.16;;;-1.54;100.00
73600;BME280;61877;48.246;9.220;2024-01-30T08:02:05;95480.06;;;-1.39;100.00
73600;BME280;61877;48.246;9.220;2024-01-30T08:04:32;95482.44;;;-1.25;100.00
73600;BME280;61877;48.246;9.220;2024-01-30T08:06:59;95478.22;;;-1.15;100.00
73600;BME280;61877;48.246;9.220;2024-01-30T08:09:27;95485.06;;;-1.02;100.00
73600;BME280;61877;48.246;9.220;2024-01-30T08:11:53;95485.28;;;-0.92;100.00
73600;BME280;61877;48.246;9.220;2024-01-30T08:14:20;95484.66;;;-0.83;100.00
73600;BME280;61877;48.246;9.220;2024-01-30T08:16:47;95484.09;;;-0.73;100.00
73600;BME280;61877;48.246;9.220;2024-01-30T08:19:14;95478.19;;;-0.52;100.00
73600;BME280;61877;48.246;9.220;2024-01-30T08:21:42;95480.69;;;-0.46;100.00
73600;BME280;61877;48.246;9.220;2024-01-30T08:24:09;95477.19;;;-0.35;100.00
73600;BME280;61877;48.246;9.220;2024-01-30T08:26:37;95472.44;;;-0.21;100.00
73600;BME280;61877;48.246;9.220;2024-01-30T08:29:04;95481.34;;;-0.11;100.00
73600;BME280;61877;48.246;9.220;2024-01-30T08:31:31;95470.97;;;-0.01;100.00
73600;BME280;61877;48.246;9.220;2024-01-30T08:33:58;95466.28;;;0.18;100.00
73600;BME280;61877;48.246;9.220;2024-01-30T08:36:25;95469.69;;;0.35;100.00
73600;BME280;61877;48.246;9.220;2024-01-30T08:38:51;95473.47;;;0.39;100.00
73600;BME280;61877;48.246;9.220;2024-01-30T08:41:24;95467.69;;;0.59;100.00
73600;BME280;61877;48.246;9.220;2024-01-30T08:43:53;95469.06;;;0.78;100.00
73600;BME280;61877;48.246;9.220;2024-01-30T08:46:19;95475.75;;;0.85;99.34
73600;BME280;61877;48.246;9.220;2024-01-30T08:48:47;95481.97;;;0.96;99.40
73600;BME280;61877;48.246;9.220;2024-01-30T08:51:16;95480.19;;;1.01;99.71
73600;BME280;61877;48.246;9.220;2024-01-30T08:53:42;95481.75;;;1.19;99.85
73600;BME280;61877;48.246;9.220;2024-01-30T08:56:09;95489.22;;;1.44;99.23
73600;BME280;61877;48.246;9.220;2024-01-30T08:58:36;95485.38;;;1.56;97.66
73600;BME280;61877;48.246;9.220;2024-01-30T09:01:04;95482.84;;;1.66;97.81
73600;BME280;61877;48.246;9.220;2024-01-30T09:03:31;95478.59;;;1.87;96.64
73600;BME280;61877;48.246;9.220;2024-01-30T09:06:00;95485.53;;;1.93;94.51
73600;BME280;61877;48.246;9.220;2024-01-30T09:08:27;95482.56;;;1.89;94.06
73600;BME280;61877;48.246;9.220;2024-01-30T09:10:53;95493.47;;;1.93;96.51
73600;BME280;61877;48.246;9.220;2024-01-30T09:13:21;95484.59;;;2.04;96.48
73600;BME280;61877;48.246;9.220;2024-01-30T09:15:48;95486.69;;;2.02;95.53
73600;BME280;61877;48.246;9.220;2024-01-30T09:18:19;95489.88;;;2.30;97.04
73600;BME280;61877;48.246;9.220;2024-01-30T09:20:48;95492.34;;;2.42;97.61
73600;BME280;61877;48.246;9.220;2024-01-30T10:22:36;95471.13;;;10.49;59.15
73600;BME280;61877;48.246;9.220;2024-01-30T10:25:35;95467.44;;;10.80;58.31
73600;BME280;61877;48.246;9.220;2024-01-30T10:32:19;95463.94;;;11.54;55.81
73600;BME280;61877;48.246;9.220;2024-01-30T11:09:50;95438.69;;;10.59;62.77
73600;BME280;61877;48.246;9.220;2024-01-30T11:29:49;95424.25;;;10.90;60.99
73600;BME280;61877;48.246;9.220;2024-01-30T11:36:32;95419.88;;;10.36;63.18
73600;BME280;61877;48.246;9.220;2024-01-30T11:42:58;95411.69;;;10.55;65.14
73600;BME280;61877;48.246;9.220;2024-01-30T11:46:00;95411.94;;;10.31;66.12
73600;BME280;61877;48.246;9.220;2024-01-30T11:48:30;95411.44;;;9.94;67.66
73600;BME280;61877;48.246;9.220;2024-01-30T11:51:06;95410.38;;;9.68;69.09
73600;BME280;61877;48.246;9.220;2024-01-30T11:53:43;95412.44;;;9.44;65.53
73600;BME280;61877;48.246;9.220;2024-01-30T11:56:18;95412.16;;;9.72;64.75
73600;BME280;61877;48.246;9.220;2024-01-30T11:58:45;95402.66;;;10.02;63.82
73600;BME280;61877;48.246;9.220;2024-01-30T12:01:13;95407.63;;;10.22;64.30
73600;BME280;61877;48.246;9.220;2024-01-30T12:03:40;95402.72;;;10.37;62.69
73600;BME280;61877;48.246;9.220;2024-01-30T12:06:07;95397.75;;;10.53;62.63
73600;BME280;61877;48.246;9.220;2024-01-30T12:08:34;95398.19;;;10.47;62.73
73600;BME280;61877;48.246;9.220;2024-01-30T12:11:00;95390.41;;;10.59;60.52
73600;BME280;61877;48.246;9.220;2024-01-30T12:13:28;95389.34;;;10.68;63.76
73600;BME280;61877;48.246;9.220;2024-01-30T12:15:59;95393.84;;;10.81;61.05
73600;BME280;61877;48.246;9.220;2024-01-30T12:18:27;95384.66;;;11.04;60.59
73600;BME280;61877;48.246;9.220;2024-01-30T12:21:02;95391.81;;;11.09;59.96
73600;BME280;61877;48.246;9.220;2024-01-30T12:23:47;95385.66;;;11.39;55.74
73600;BME280;61877;48.246;9.220;2024-01-30T12:26:14;95380.53;;;11.68;55.53
73600;BME280;61877;48.246;9.220;2024-01-30T12:28:47;95382.53;;;11.62;52.91
73600;BME280;61877;48.246;9.220;2024-01-30T12:31:14;95377.63;;;12.04;56.58
73600;BME280;61877;48.246;9.220;2024-01-30T12:33:42;95371.94;;;12.05;56.66
73600;BME280;61877;48.246;9.220;2024-01-30T12:36:09;95378.69;;;11.86;52.90
73600;BME280;61877;48.246;9.220;2024-01-30T12:38:38;95368.44;;;12.05;55.02
73600;BME280;61877;48.246;9.220;2024-01-30T12:41:07;95364.66;;;11.58;54.42
73600;BME280;61877;48.246;9.220;2024-01-30T12:43:34;95360.31;;;11.79;55.04
73600;BME280;61877;48.246;9.220;2024-01-30T12:46:05;95362.66;;;11.63;54.70
73600;BME280;61877;48.246;9.220;2024-01-30T12:48:32;95362.88;;;11.93;54.70
73600;BME280;61877;48.246;9.220;2024-01-30T12:51:00;95364.97;;;12.30;54.75
73600;BME280;61877;48.246;9.220;2024-01-30T12:53:27;95363.78;;;12.99;53.41
73600;BME280;61877;48.246;9.220;2024-01-30T12:55:54;95361.97;;;13.66;49.26
73600;BME280;61877;48.246;9.220;2024-01-30T12:58:21;95358.25;;;15.60;46.83
73600;BME280;61877;48.246;9.220;2024-01-30T13:00:48;95355.34;;;16.28;44.58
73600;BME280;61877;48.246;9.220;2024-01-30T13:03:15;95352.69;;;16.96;43.08
73600;BME280;61877;48.246;9.220;2024-01-30T13:05:42;95361.91;;;16.95;42.63
73600;BME280;61877;48.246;9.220;2024-01-30T13:08:10;95361.09;;;17.80;40.09
73600;BME280;61877;48.246;9.220;2024-01-30T13:10:36;95351.16;;;18.54;38.03
73600;BME280;61877;48.246;9.220;2024-01-30T13:13:03;95353.69;;;18.12;38.22
73600;BME280;61877;48.246;9.220;2024-01-30T13:15:32;95355.88;;;18.22;39.04
73600;BME280;61877;48.246;9.220;2024-01-30T13:17:58;95344.13;;;18.37;39.10
73600;BME280;61877;48.246;9.220;2024-01-30T13:20:25;95345.00;;;18.57;37.56
73600;BME280;61877;48.246;9.220;2024-01-30T13:22:52;95354.34;;;17.59;39.26
73600;BME280;61877;48.246;9.220;2024-01-30T13:25:21;95349.63;;;17.56;39.92
73600;BME280;61877;48.246;9.220;2024-01-30T13:27:53;95348.38;;;16.27;42.11
73600;BME280;61877;48.246;9.220;2024-01-30T13:30:20;95344.97;;;16.18;42.17
73600;BME280;61877;48.246;9.220;2024-01-30T13:32:46;95344.38;;;15.73;43.50
73600;BME280;61877;48.246;9.220;2024-01-30T13:35:13;95357.16;;;17.04;41.10
73600;BME280;61877;48.246;9.220;2024-01-30T13:37:40;95355.75;;;17.84;39.64
73600;BME280;61877;48.246;9.220;2024-01-30T13:40:07;95353.22;;;18.60;38.00
73600;BME280;61877;48.246;9.220;2024-01-30T13:42:39;95355.41;;;18.20;38.06
73600;BME280;61877;48.246;9.220;2024-01-30T13:45:05;95362.16;;;16.90;40.59
73600;BME280;61877;48.246;9.220;2024-01-30T13:47:32;95362.84;;;15.95;42.51
73600;BME280;61877;48.246;9.220;2024-01-30T13:49:59;95363.72;;;14.62;45.77
73600;BME280;61877;48.246;9.220;2024-01-30T13:52:26;95370.00;;;14.24;46.61
73600;BME280;61877;48.246;9.220;2024-01-30T13:55:01;95383.25;;;13.88;48.54
73600;BME280;61877;48.246;9.220;2024-01-30T13:57:28;95382.47;;;12.95;50.57
73600;BME280;61877;48.246;9.220;2024-01-30T13:59:56;95371.94;;;12.65;51.32
73600;BME280;61877;48.246;9.220;2024-01-30T14:02:23;95376.84;;;12.20;52.28
73600;BME280;61877;48.246;9.220;2024-01-30T14:04:49;95372.25;;;12.04;53.87
73600;BME280;61877;48.246;9.220;2024-01-30T14:07:16;95380.09;;;11.75;54.12
73600;BME280;61877;48.246;9.220;2024-01-30T14:09:44;95378.66;;;11.68;55.08
73600;BME280;61877;48.246;9.220;2024-01-30T14:12:11;95375.88;;;11.51;55.31
73600;BME280;61877;48.246;9.220;2024-01-30T14:14:38;95378.16;;;11.27;55.92
73600;BME280;61877;48.246;9.220;2024-01-30T14:17:06;95380.84;;;11.27;55.27
73600;BME280;61877;48.246;9.220;2024-01-30T14:19:32;95388.88;;;11.19;57.01
73600;BME280;61877;48.246;9.220;2024-01-30T14:21:59;95393.88;;;11.12;57.36
73600;BME280;61877;48.246;9.220;2024-01-30T14:24:28;95393.09;;;11.11;58.56
73600;BME280;61877;48.246;9.220;2024-01-30T14:26:55;95393.50;;;10.74;60.53
73600;BME280;61877;48.246;9.220;2024-01-30T14:29:21;95395.16;;;10.62;60.67
73600;BME280;61877;48.246;9.220;2024-01-30T14:31:48;95387.53;;;10.55;61.36
73600;BME280;61877;48.246;9.220;2024-01-30T14:34:16;95392.06;;;10.46;61.84
73600;BME280;61877;48.246;9.220;2024-01-30T14:36:42;95396.38;;;10.56;61.13
73600;BME280;61877;48.246;9.220;2024-01-30T14:39:11;95391.28;;;10.32;62.20
73600;BME280;61877;48.246;9.220;2024-01-30T14:41:38;95399.69;;;10.17;63.01
73600;BME280;61877;48.246;9.220;2024-01-30T14:44:05;95396.19;;;10.16;62.42
73600;BME280;61877;48.246;9.220;2024-01-30T14:46:35;95397.81;;;10.04;62.96
73600;BME280;61877;48.246;9.220;2024-01-30T14:49:02;95394.38;;;9.90;63.28
73600;BME280;61877;48.246;9.220;2024-01-30T14:51:30;95396.16;;;9.81;64.09
73600;BME280;61877;48.246;9.220;2024-01-30T14:53:57;95401.53;;;9.81;63.97
73600;BME280;61877;48.246;9.220;2024-01-30T14:56:23;95397.63;;;9.87;63.36
73600;BME280;61877;48.246;9.220;2024-01-30T14:58:50;95402.13;;;9.78;63.45
73600;BME280;61877;48.246;9.220;2024-01-30T15:01:17;95407.69;;;9.54;64.53
73600;BME280;61877;48.246;9.220;2024-01-30T15:03:43;95398.94;;;9.49;64.91
73600;BME280;61877;48.246;9.220;2024-01-30T15:06:12;95405.50;;;9.43;64.33
73600;BME280;61877;48.246;9.220;2024-01-30T15:08:40;95406.63;;;9.42;64.09
73600;BME280;61877;48.246;9.220;2024-01-30T15:11:07;95405.22;;;9.58;64.05
73600;BME280;61877;48.246;9.220;2024-01-30T15:13:34;95407.09;;;9.30;65.56
73600;BME280;61877;48.246;9.220;2024-01-30T15:16:00;95407.09;;;9.17;66.02
73600;BME280;61877;48.246;9.220;2024-01-30T15:18:29;95413.22;;;9.03;66.87
73600;BME280;61877;48.246;9.220;2024-01-30T15:20:55;95405.47;;;8.88;67.53
73600;BME280;61877;48.246;9.220;2024-01-30T15:23:22;95414.34;;;8.70;68.93
73600;BME280;61877;48.246;9.220;2024-01-30T15:25:50;95423.38;;;8.56;69.48
73600;BME280;61877;48.246;9.220;2024-01-30T15:28:17;95416.53;;;8.31;70.64
73600;BME280;61877;48.246;9.220;2024-01-30T15:30:43;95415.88;;;8.21;73.39
73600;BME280;61877;48.246;9.220;2024-01-30T15:33:10;95411.03;;;7.85;76.02
73600;BME280;61877;48.246;9.220;2024-01-30T15:35:36;95419.34;;;7.60;77.27
73600;BME280;61877;48.246;9.220;2024-01-30T15:38:03;95418.78;;;7.40;79.64
73600;BME280;61877;48.246;9.220;2024-01-30T15:40:30;95421.91;;;7.23;81.51
73600;BME280;61877;48.246;9.220;2024-01-30T15:42:58;95420.44;;;7.12;83.05
73600;BME280;61877;48.246;9.220;2024-01-30T15:45:25;95427.13;;;7.10;82.90
73600;BME280;61877;48.246;9.220;2024-01-30T15:47:56;95427.88;;;6.87;83.08
73600;BME280;61877;48.246;9.220;2024-01-30T15:50:22;95433.84;;;6.79;83.40
73600;BME280;61877;48.246;9.220;2024-01-30T15:52:49;95438.44;;;6.73;82.29
73600;BME280;61877;48.246;9.220;2024-01-30T15:55:15;95446.06;;;6.51;82.95
73600;BME280;61877;48.246;9.220;2024-01-30T15:57:42;95450.69;;;6.35;83.36
73600;BME280;61877;48.246;9.220;2024-01-30T16:00:11;95457.22;;;6.19;84.76
73600;BME280;61877;48.246;9.220;2024-01-30T16:02:38;95459.53;;;5.87;85.56
73600;BME280;61877;48.246;9.220;2024-01-30T16:05:05;95465.19;;;5.66;90.81
73600;BME280;61877;48.246;9.220;2024-01-30T16:07:32;95465.25;;;5.46;93.70
73600;BME280;61877;48.246;9.220;2024-01-30T16:10:00;95475.16;;;5.35;93.25
73600;BME280;61877;48.246;9.220;2024-01-30T16:12:27;95466.94;;;5.21;94.48
73600;BME280;61877;48.246;9.220;2024-01-30T16:14:53;95480.00;;;5.08;96.85
73600;BME280;61877;48.246;9.220;2024-01-30T16:17:21;95480.81;;;4.93;97.45
73600;BME280;61877;48.246;9.220;2024-01-30T16:19:48;95481.34;;;4.85;98.27
73600;BME280;61877;48.246;9.220;2024-01-30T16:22:15;95484.28;;;4.79;99.22
73600;BME280;61877;48.246;9.220;2024-01-30T16:24:42;95487.47;;;4.66;100.00
73600;BME280;61877;48.246;9.220;2024-01-30T16:27:09;95494.38;;;4.57;100.00
73600;BME280;61877;48.246;9.220;2024-01-30T16:29:36;95485.31;;;4.53;100.00
73600;BME280;61877;48.246;9.220;2024-01-30T16:32:03;95491.44;;;4.48;100.00
73600;BME280;61877;48.246;9.220;2024-01-30T16:34:31;95487.97;;;4.43;100.00
73600;BME280;61877;48.246;9.220;2024-01-30T16:36:57;95493.53;;;4.31;100.00
73600;BME280;61877;48.246;9.220;2024-01-30T16:39:24;95497.00;;;4.22;100.00
73600;BME280;61877;48.246;9.220;2024-01-30T16:41:50;95495.41;;;4.16;100.00
73600;BME280;61877;48.246;9.220;2024-01-30T16:44:17;95495.91;;;4.08;100.00
73600;BME280;61877;48.246;9.220;2024-01-30T16:46:44;95501.47;;;4.01;100.00
73600;BME280;61877;48.246;9.220;2024-01-30T16:49:10;95500.38;;;3.97;100.00
73600;BME280;61877;48.246;9.220;2024-01-30T16:51:38;95506.47;;;3.87;100.00
73600;BME280;61877;48.246;9.220;2024-01-30T16:54:05;95503.81;;;3.82;100.00
73600;BME280;61877;48.246;9.220;2024-01-30T16:56:31;95517.06;;;3.77;100.00
73600;BME280;61877;48.246;9.220;2024-01-30T16:58:58;95506.97;;;3.74;100.00
73600;BME280;61877;48.246;9.220;2024-01-30T17:01:25;95514.63;;;3.66;100.00
73600;BME280;61877;48.246;9.220;2024-01-30T17:03:52;95519.13;;;3.65;100.00
73600;BME280;61877;48.246;9.220;2024-01-30T17:06:19;95519.63;;;3.62;100.00
73600;BME280;61877;48.246;9.220;2024-01-30T17:08:47;95513.75;;;3.55;100.00
73600;BME280;61877;48.246;9.220;2024-01-30T17:11:13;95510.06;;;3.56;100.00
73600;BME280;61877;48.246;9.220;2024-01-30T17:13:40;95509.56;;;3.59;100.00
73600;BME280;61877;48.246;9.220;2024-01-30T17:16:07;95514.31;;;3.57;100.00
73600;BME280;61877;48.246;9.220;2024-01-30T17:18:33;95519.75;;;3.87;100.00
73600;BME280;61877;48.246;9.220;2024-01-30T17:21:00;95522.66;;;3.81;100.00
73600;BME280;61877;48.246;9.220;2024-01-30T17:23:26;95522.31;;;3.67;100.00
73600;BME280;61877;48.246;9.220;2024-01-30T17:25:54;95526.00;;;3.56;100.00
73600;BME280;61877;48.246;9.220;2024-01-30T17:28:21;95534.69;;;3.47;100.00
73600;BME280;61877;48.246;9.220;2024-01-30T17:30:48;95541.28;;;3.39;100.00
73600;BME280;61877;48.246;9.220;2024-01-30T17:33:14;95538.56;;;3.29;100.00
73600;BME280;61877;48.246;9.220;2024-01-30T17:35:41;95542.28;;;3.33;100.00
73600;BME280;61877;48.246;9.220;2024-01-30T17:38:08;95542.53;;;3.32;100.00
73600;BME280;61877;48.246;9.220;2024-01-30T17:40:34;95545.47;;;3.30;100.00
73600;BME280;61877;48.246;9.220;2024-01-30T17:43:02;95553.22;;;3.42;100.00
73600;BME280;61877;48.246;9.220;2024-01-30T17:45:29;95545.47;;;3.35;100.00
73600;BME280;61877;48.246;9.220;2024-01-30T17:47:56;95556.84;;;3.26;100.00
73600;BME280;61877;48.246;9.220;2024-01-30T17:50:22;95559.47;;;3.21;100.00
73600;BME280;61877;48.246;9.220;2024-01-30T17:52:49;95561.56;;;3.19;100.00
73600;BME280;61877;48.246;9.220;2024-01-30T17:55:15;95563.66;;;3.17;100.00
73600;BME280;61877;48.246;9.220;2024-01-30T17:57:44;95558.66;;;3.20;100.00
73600;BME280;61877;48.246;9.220;2024-01-30T18:00:13;95551.50;;;3.21;100.00
73600;BME280;61877;48.246;9.220;2024-01-30T18:02:44;95561.56;;;3.19;100.00